This is the latest recevied weather packets stored in our database for station/object WV8MT. If no packets are shown the sender has not sent any weather packets the latest 10 day(s).
| Time | Temp. | Humidity | Pressure | Rain* | Wind** | Luminosity | Snow |
|---|---|---|---|---|---|---|---|
| 1777455620 | 12.78° C | 99% | 1017.8 hPa | 0 mm | - | - | - |
| 1777453820 | 13.33° C | 99% | 1018 hPa | 0 mm | - | - | - |
| 1777452638 | 13.33° C | 99% | 1017.8 hPa | 0 mm | - | - | - |
| 1777442418 | 13.33° C | 99% | 1019.1 hPa | 0 mm | - | - | - |
| 1777440037 | 15° C | 98% | 1019.5 hPa | 0 mm | - | - | - |
| 1777438229 | 15.56° C | 95% | 1020.1 hPa | 0 mm | - | - | - |
| 1777436423 | 16.11° C | 95% | 1020.4 hPa | 0 mm | - | - | - |
| 1777431619 | 15.56° C | 95% | 1020.9 hPa | 0 mm | - | - | - |
| 1777425047 | 16.11° C | 91% | 1020.1 hPa | 0 mm | - | - | - |
| 1777419025 | 20° C | 75% | 1018.2 hPa | 0 mm | - | - | - |
| 1777416015 | 26.67° C | 50% | 1018.9 hPa | 0 mm | - | - | - |
| 1777415419 | 24.44° C | 54% | 1019 hPa | 0 mm | - | - | - |
| 1777413652 | 25° C | 55% | 1018.5 hPa | 0 mm | - | - | - |
| 1777411826 | 25° C | 56% | 1018.4 hPa | 0 mm | - | - | - |
| 1777410616 | 24.44° C | 57% | 1018.3 hPa | 0 mm | - | - | - |
| 1777408232 | 25° C | 59% | 1018.7 hPa | 0 mm | - | - | - |
| 1777405830 | 23.89° C | 66% | 1019.4 hPa | 0 mm | - | - | - |
| 1777402218 | 20° C | 76% | 1019.6 hPa | 0 mm | - | - | - |
| 1777401026 | 19.44° C | 77% | 1019.9 hPa | 0 mm | - | - | - |
| 1777398016 | 17.22° C | 81% | 1020.5 hPa | 0 mm | - | - | - |
| 1777396243 | 15.56° C | 85% | 1020.8 hPa | 0 mm | - | - | - |
| 1777394417 | 15.56° C | 84% | 1021.1 hPa | 0 mm | - | - | - |
| 1777384827 | 11.67° C | 95% | 1022 hPa | 0 mm | - | - | - |
| 1777378217 | 10.56° C | 97% | 1022.5 hPa | 0 mm | - | - | - |
| 1777375219 | 9.44° C | 99% | 1022.2 hPa | 0.76 mm | - | - | - |
* Rain latest hour (hover to see other rain measurements)
** Current wind speed in m/s (hover to see current wind gust speed)